sensor_id;sensor_type;location;lat;lon;timestamp;temperature;humidity
13598;DHT22;38563;54.258;12.574;2023-07-31T00:01:05;13.20;99.90
13598;DHT22;38563;54.258;12.574;2023-07-31T00:03:32;13.20;99.90
13598;DHT22;38563;54.258;12.574;2023-07-31T00:05:58;13.20;99.90
13598;DHT22;38563;54.258;12.574;2023-07-31T00:08:26;13.10;99.90
13598;DHT22;38563;54.258;12.574;2023-07-31T00:10:53;13.10;99.90
13598;DHT22;38563;54.258;12.574;2023-07-31T00:13:20;13.10;99.90
13598;DHT22;38563;54.258;12.574;2023-07-31T00:15:46;13.00;99.90
13598;DHT22;38563;54.258;12.574;2023-07-31T00:18:13;13.00;99.90
13598;DHT22;38563;54.258;12.574;2023-07-31T00:20:40;13.00;99.90
13598;DHT22;38563;54.258;12.574;2023-07-31T00:23:07;13.00;99.90
13598;DHT22;38563;54.258;12.574;2023-07-31T00:25:35;12.90;99.90
13598;DHT22;38563;54.258;12.574;2023-07-31T00:28:02;12.90;99.90
13598;DHT22;38563;54.258;12.574;2023-07-31T00:30:28;12.80;99.90
13598;DHT22;38563;54.258;12.574;2023-07-31T00:32:55;12.80;99.90
13598;DHT22;38563;54.258;12.574;2023-07-31T00:35:22;12.80;99.90
13598;DHT22;38563;54.258;12.574;2023-07-31T00:37:48;12.70;99.90
13598;DHT22;38563;54.258;12.574;2023-07-31T00:40:15;12.70;99.90
13598;DHT22;38563;54.258;12.574;2023-07-31T00:42:43;12.70;99.90
13598;DHT22;38563;54.258;12.574;2023-07-31T00:45:10;12.70;99.90
13598;DHT22;38563;54.258;12.574;2023-07-31T00:47:37;12.70;99.90
13598;DHT22;38563;54.258;12.574;2023-07-31T00:50:05;12.70;99.90
13598;DHT22;38563;54.258;12.574;2023-07-31T00:52:32;12.70;99.90
13598;DHT22;38563;54.258;12.574;2023-07-31T00:54:59;12.60;99.90
13598;DHT22;38563;54.258;12.574;2023-07-31T00:57:26;12.60;99.90
13598;DHT22;38563;54.258;12.574;2023-07-31T00:59:54;12.60;99.90
13598;DHT22;38563;54.258;12.574;2023-07-31T01:02:21;12.60;99.90
13598;DHT22;38563;54.258;12.574;2023-07-31T01:04:48;12.60;99.90
13598;DHT22;38563;54.258;12.574;2023-07-31T01:07:22;12.60;99.90
13598;DHT22;38563;54.258;12.574;2023-07-31T01:09:59;12.50;99.90
13598;DHT22;38563;54.258;12.574;2023-07-31T01:12:28;12.50;99.90
13598;DHT22;38563;54.258;12.574;2023-07-31T01:15:05;12.50;99.90
13598;DHT22;38563;54.258;12.574;2023-07-31T01:17:33;12.50;99.90
13598;DHT22;38563;54.258;12.574;2023-07-31T01:20:02;12.50;99.90
13598;DHT22;38563;54.258;12.574;2023-07-31T01:22:59;12.50;99.90
13598;DHT22;38563;54.258;12.574;2023-07-31T01:25:50;12.50;99.90
13598;DHT22;38563;54.258;12.574;2023-07-31T01:28:20;12.50;99.90
13598;DHT22;38563;54.258;12.574;2023-07-31T01:30:48;12.50;99.90
13598;DHT22;38563;54.258;12.574;2023-07-31T01:33:16;12.50;99.90
13598;DHT22;38563;54.258;12.574;2023-07-31T01:35:44;12.50;99.90
13598;DHT22;38563;54.258;12.574;2023-07-31T01:38:11;12.50;99.90
13598;DHT22;38563;54.258;12.574;2023-07-31T01:40:41;12.50;99.90
13598;DHT22;38563;54.258;12.574;2023-07-31T01:43:10;12.50;99.90
13598;DHT22;38563;54.258;12.574;2023-07-31T01:45:37;12.60;99.90
13598;DHT22;38563;54.258;12.574;2023-07-31T01:48:03;12.50;99.90
13598;DHT22;38563;54.258;12.574;2023-07-31T01:50:30;12.60;99.90
13598;DHT22;38563;54.258;12.574;2023-07-31T01:52:57;12.60;99.90
13598;DHT22;38563;54.258;12.574;2023-07-31T01:55:24;12.60;99.90
13598;DHT22;38563;54.258;12.574;2023-07-31T01:57:50;12.60;99.90
13598;DHT22;38563;54.258;12.574;2023-07-31T02:00:19;12.60;99.90
13598;DHT22;38563;54.258;12.574;2023-07-31T02:02:45;12.60;99.90
13598;DHT22;38563;54.258;12.574;2023-07-31T02:05:12;12.60;99.90
13598;DHT22;38563;54.258;12.574;2023-07-31T02:07:39;12.60;99.90
13598;DHT22;38563;54.258;12.574;2023-07-31T02:10:06;12.60;99.90
13598;DHT22;38563;54.258;12.574;2023-07-31T02:12:35;12.60;99.90
13598;DHT22;38563;54.258;12.574;2023-07-31T02:15:02;12.60;99.90
13598;DHT22;38563;54.258;12.574;2023-07-31T02:17:30;12.60;99.90
13598;DHT22;38563;54.258;12.574;2023-07-31T02:19:57;12.70;99.90
13598;DHT22;38563;54.258;12.574;2023-07-31T02:22:24;12.70;99.90
13598;DHT22;38563;54.258;12.574;2023-07-31T02:24:51;12.70;99.90
13598;DHT22;38563;54.258;12.574;2023-07-31T02:27:17;12.70;99.90
13598;DHT22;38563;54.258;12.574;2023-07-31T02:29:44;12.70;99.90
13598;DHT22;38563;54.258;12.574;2023-07-31T02:32:12;12.60;99.90
13598;DHT22;38563;54.258;12.574;2023-07-31T02:34:40;12.60;99.90
13598;DHT22;38563;54.258;12.574;2023-07-31T02:37:06;12.60;99.90
13598;DHT22;38563;54.258;12.574;2023-07-31T02:39:33;12.70;99.90
13598;DHT22;38563;54.258;12.574;2023-07-31T02:42:00;12.70;99.90
13598;DHT22;38563;54.258;12.574;2023-07-31T02:44:27;12.70;99.90
13598;DHT22;38563;54.258;12.574;2023-07-31T02:46:54;12.70;99.90
13598;DHT22;38563;54.258;12.574;2023-07-31T02:49:20;12.60;99.90
13598;DHT22;38563;54.258;12.574;2023-07-31T02:51:48;12.60;99.90
13598;DHT22;38563;54.258;12.574;2023-07-31T02:54:15;12.50;99.90
13598;DHT22;38563;54.258;12.574;2023-07-31T02:56:42;12.50;99.90
13598;DHT22;38563;54.258;12.574;2023-07-31T02:59:08;12.50;99.90
13598;DHT22;38563;54.258;12.574;2023-07-31T03:01:35;12.50;99.90
13598;DHT22;38563;54.258;12.574;2023-07-31T03:04:02;12.60;99.90
13598;DHT22;38563;54.258;12.574;2023-07-31T03:06:28;12.70;99.90
13598;DHT22;38563;54.258;12.574;2023-07-31T03:08:57;12.70;99.90
13598;DHT22;38563;54.258;12.574;2023-07-31T03:11:23;12.80;99.90
13598;DHT22;38563;54.258;12.574;2023-07-31T03:13:50;12.90;99.90
13598;DHT22;38563;54.258;12.574;2023-07-31T03:16:17;12.90;99.90
13598;DHT22;38563;54.258;12.574;2023-07-31T03:18:43;13.00;99.90
13598;DHT22;38563;54.258;12.574;2023-07-31T03:21:10;13.00;99.90
13598;DHT22;38563;54.258;12.574;2023-07-31T03:23:37;13.00;99.90
13598;DHT22;38563;54.258;12.574;2023-07-31T03:26:07;12.90;99.90
13598;DHT22;38563;54.258;12.574;2023-07-31T03:28:34;12.90;99.90
13598;DHT22;38563;54.258;12.574;2023-07-31T03:31:00;12.90;99.90
13598;DHT22;38563;54.258;12.574;2023-07-31T03:33:29;13.00;99.90
13598;DHT22;38563;54.258;12.574;2023-07-31T03:35:56;13.00;99.90
13598;DHT22;38563;54.258;12.574;2023-07-31T03:38:22;13.00;99.90
13598;DHT22;38563;54.258;12.574;2023-07-31T03:40:49;13.00;99.90
13598;DHT22;38563;54.258;12.574;2023-07-31T03:43:17;13.00;99.90
13598;DHT22;38563;54.258;12.574;2023-07-31T03:45:44;13.00;99.90
13598;DHT22;38563;54.258;12.574;2023-07-31T03:48:11;13.10;99.90
13598;DHT22;38563;54.258;12.574;2023-07-31T03:50:37;13.10;99.90
13598;DHT22;38563;54.258;12.574;2023-07-31T03:53:04;13.10;99.90
13598;DHT22;38563;54.258;12.574;2023-07-31T03:55:31;13.10;99.90
13598;DHT22;38563;54.258;12.574;2023-07-31T03:57:57;13.10;99.90
13598;DHT22;38563;54.258;12.574;2023-07-31T04:00:27;13.10;99.90
13598;DHT22;38563;54.258;12.574;2023-07-31T04:02:54;13.10;99.90
13598;DHT22;38563;54.258;12.574;2023-07-31T04:05:20;13.20;99.90
13598;DHT22;38563;54.258;12.574;2023-07-31T04:07:47;13.20;99.90
13598;DHT22;38563;54.258;12.574;2023-07-31T04:10:14;13.20;99.90
13598;DHT22;38563;54.258;12.574;2023-07-31T04:12:41;13.20;99.90
13598;DHT22;38563;54.258;12.574;2023-07-31T04:15:08;13.20;99.90
13598;DHT22;38563;54.258;12.574;2023-07-31T04:17:36;13.20;99.90
13598;DHT22;38563;54.258;12.574;2023-07-31T04:20:03;13.30;99.90
13598;DHT22;38563;54.258;12.574;2023-07-31T04:22:30;13.20;99.90
13598;DHT22;38563;54.258;12.574;2023-07-31T04:24:57;13.20;99.90
13598;DHT22;38563;54.258;12.574;2023-07-31T04:27:23;13.20;99.90
13598;DHT22;38563;54.258;12.574;2023-07-31T04:29:50;13.30;99.90
13598;DHT22;38563;54.258;12.574;2023-07-31T04:32:17;13.30;99.90
13598;DHT22;38563;54.258;12.574;2023-07-31T04:34:46;13.40;99.90
13598;DHT22;38563;54.258;12.574;2023-07-31T04:37:13;13.40;99.90
13598;DHT22;38563;54.258;12.574;2023-07-31T04:39:39;13.50;99.90
13598;DHT22;38563;54.258;12.574;2023-07-31T04:42:06;13.60;99.90
13598;DHT22;38563;54.258;12.574;2023-07-31T04:44:33;13.60;99.90
13598;DHT22;38563;54.258;12.574;2023-07-31T04:46:59;13.70;99.90
13598;DHT22;38563;54.258;12.574;2023-07-31T04:49:27;13.70;99.90
13598;DHT22;38563;54.258;12.574;2023-07-31T04:51:55;13.70;99.90
13598;DHT22;38563;54.258;12.574;2023-07-31T04:54:22;13.70;99.90
13598;DHT22;38563;54.258;12.574;2023-07-31T04:56:48;13.70;99.90
13598;DHT22;38563;54.258;12.574;2023-07-31T04:59:15;13.70;99.90
13598;DHT22;38563;54.258;12.574;2023-07-31T05:01:42;13.80;99.90
13598;DHT22;38563;54.258;12.574;2023-07-31T05:04:12;13.80;99.90
13598;DHT22;38563;54.258;12.574;2023-07-31T05:06:38;13.80;99.90
13598;DHT22;38563;54.258;12.574;2023-07-31T05:09:06;13.80;99.90
13598;DHT22;38563;54.258;12.574;2023-07-31T05:11:34;13.80;99.90
13598;DHT22;38563;54.258;12.574;2023-07-31T05:14:01;13.80;99.90
13598;DHT22;38563;54.258;12.574;2023-07-31T05:16:28;13.80;99.90
13598;DHT22;38563;54.258;12.574;2023-07-31T05:18:54;13.90;99.90
13598;DHT22;38563;54.258;12.574;2023-07-31T05:21:21;13.90;99.90
13598;DHT22;38563;54.258;12.574;2023-07-31T05:23:49;13.90;99.90
13598;DHT22;38563;54.258;12.574;2023-07-31T05:26:17;13.90;99.90
13598;DHT22;38563;54.258;12.574;2023-07-31T05:28:43;14.00;99.90
13598;DHT22;38563;54.258;12.574;2023-07-31T05:31:10;14.10;99.90
13598;DHT22;38563;54.258;12.574;2023-07-31T05:33:37;14.10;99.90
13598;DHT22;38563;54.258;12.574;2023-07-31T05:36:04;14.20;99.90
13598;DHT22;38563;54.258;12.574;2023-07-31T05:38:31;14.20;99.90
13598;DHT22;38563;54.258;12.574;2023-07-31T05:41:02;14.30;99.90
13598;DHT22;38563;54.258;12.574;2023-07-31T05:43:32;14.40;99.90
13598;DHT22;38563;54.258;12.574;2023-07-31T05:45:59;14.50;99.90
13598;DHT22;38563;54.258;12.574;2023-07-31T05:48:26;14.50;99.90
13598;DHT22;38563;54.258;12.574;2023-07-31T05:50:53;14.60;99.90
13598;DHT22;38563;54.258;12.574;2023-07-31T05:53:20;14.60;99.90
13598;DHT22;38563;54.258;12.574;2023-07-31T05:55:47;14.70;99.90
13598;DHT22;38563;54.258;12.574;2023-07-31T05:58:13;14.80;99.90
13598;DHT22;38563;54.258;12.574;2023-07-31T06:00:41;14.90;99.90
13598;DHT22;38563;54.258;12.574;2023-07-31T06:03:08;15.00;99.90
13598;DHT22;38563;54.258;12.574;2023-07-31T06:05:35;15.10;99.90
13598;DHT22;38563;54.258;12.574;2023-07-31T06:08:02;15.10;99.90
13598;DHT22;38563;54.258;12.574;2023-07-31T06:10:28;15.10;99.90
13598;DHT22;38563;54.258;12.574;2023-07-31T06:12:55;15.20;99.90
13598;DHT22;38563;54.258;12.574;2023-07-31T06:15:22;15.20;99.90
13598;DHT22;38563;54.258;12.574;2023-07-31T06:17:50;15.30;99.90
13598;DHT22;38563;54.258;12.574;2023-07-31T06:20:17;15.30;99.90
13598;DHT22;38563;54.258;12.574;2023-07-31T06:22:44;15.40;99.90
13598;DHT22;38563;54.258;12.574;2023-07-31T06:25:12;15.50;99.90
13598;DHT22;38563;54.258;12.574;2023-07-31T06:27:38;15.60;99.90
13598;DHT22;38563;54.258;12.574;2023-07-31T06:30:06;15.60;99.90
13598;DHT22;38563;54.258;12.574;2023-07-31T06:32:33;15.60;99.90
13598;DHT22;38563;54.258;12.574;2023-07-31T06:35:01;15.70;99.90
13598;DHT22;38563;54.258;12.574;2023-07-31T06:37:28;15.80;99.90
13598;DHT22;38563;54.258;12.574;2023-07-31T06:39:55;15.90;99.90
13598;DHT22;38563;54.258;12.574;2023-07-31T06:42:21;16.00;99.90
13598;DHT22;38563;54.258;12.574;2023-07-31T06:44:48;16.10;99.90
13598;DHT22;38563;54.258;12.574;2023-07-31T06:47:15;16.10;99.90
13598;DHT22;38563;54.258;12.574;2023-07-31T06:49:42;16.10;99.90
13598;DHT22;38563;54.258;12.574;2023-07-31T06:52:10;16.10;99.90
13598;DHT22;38563;54.258;12.574;2023-07-31T06:54:37;16.10;99.90
13598;DHT22;38563;54.258;12.574;2023-07-31T06:57:04;16.10;99.90
13598;DHT22;38563;54.258;12.574;2023-07-31T06:59:31;16.20;99.90
13598;DHT22;38563;54.258;12.574;2023-07-31T07:01:58;16.30;99.90
13598;DHT22;38563;54.258;12.574;2023-07-31T07:04:25;16.40;99.90
13598;DHT22;38563;54.258;12.574;2023-07-31T07:06:52;16.50;99.90
13598;DHT22;38563;54.258;12.574;2023-07-31T07:09:20;16.50;99.90
13598;DHT22;38563;54.258;12.574;2023-07-31T07:11:46;16.40;99.90
13598;DHT22;38563;54.258;12.574;2023-07-31T07:14:13;16.40;99.90
13598;DHT22;38563;54.258;12.574;2023-07-31T07:16:40;16.40;99.90
13598;DHT22;38563;54.258;12.574;2023-07-31T07:19:07;16.40;99.90
13598;DHT22;38563;54.258;12.574;2023-07-31T07:21:34;16.40;99.90
13598;DHT22;38563;54.258;12.574;2023-07-31T07:24:00;16.40;99.90
13598;DHT22;38563;54.258;12.574;2023-07-31T07:26:28;16.40;99.90
13598;DHT22;38563;54.258;12.574;2023-07-31T07:28:56;16.40;99.90
13598;DHT22;38563;54.258;12.574;2023-07-31T07:31:23;16.30;99.90
13598;DHT22;38563;54.258;12.574;2023-07-31T07:33:50;16.30;99.90
13598;DHT22;38563;54.258;12.574;2023-07-31T07:36:16;16.30;99.90
13598;DHT22;38563;54.258;12.574;2023-07-31T07:38:43;16.40;99.90
13598;DHT22;38563;54.258;12.574;2023-07-31T07:41:10;16.40;99.90
13598;DHT22;38563;54.258;12.574;2023-07-31T07:43:38;16.50;99.90
13598;DHT22;38563;54.258;12.574;2023-07-31T07:46:05;16.60;99.90
13598;DHT22;38563;54.258;12.574;2023-07-31T07:48:31;16.70;99.90
13598;DHT22;38563;54.258;12.574;2023-07-31T07:50:58;16.80;99.90
13598;DHT22;38563;54.258;12.574;2023-07-31T07:53:25;17.00;99.90
13598;DHT22;38563;54.258;12.574;2023-07-31T07:55:51;17.20;99.90
13598;DHT22;38563;54.258;12.574;2023-07-31T07:58:18;17.50;99.90
13598;DHT22;38563;54.258;12.574;2023-07-31T08:00:50;17.70;99.90
13598;DHT22;38563;54.258;12.574;2023-07-31T08:03:17;17.90;99.90
13598;DHT22;38563;54.258;12.574;2023-07-31T08:05:44;18.00;99.90
13598;DHT22;38563;54.258;12.574;2023-07-31T08:08:14;18.10;99.90
13598;DHT22;38563;54.258;12.574;2023-07-31T08:10:41;18.00;99.90
13598;DHT22;38563;54.258;12.574;2023-07-31T08:13:09;17.90;99.90
13598;DHT22;38563;54.258;12.574;2023-07-31T08:15:35;17.80;99.90
13598;DHT22;38563;54.258;12.574;2023-07-31T08:18:03;17.90;99.90
13598;DHT22;38563;54.258;12.574;2023-07-31T08:20:30;18.00;99.90
13598;DHT22;38563;54.258;12.574;2023-07-31T08:22:57;17.90;99.90
13598;DHT22;38563;54.258;12.574;2023-07-31T08:25:24;18.00;99.90
13598;DHT22;38563;54.258;12.574;2023-07-31T08:27:51;18.20;99.90
13598;DHT22;38563;54.258;12.574;2023-07-31T08:30:19;18.40;99.90
13598;DHT22;38563;54.258;12.574;2023-07-31T08:32:45;18.60;99.90
13598;DHT22;38563;54.258;12.574;2023-07-31T08:35:14;18.60;99.90
13598;DHT22;38563;54.258;12.574;2023-07-31T08:37:40;18.50;99.90
13598;DHT22;38563;54.258;12.574;2023-07-31T08:40:08;18.50;99.90
13598;DHT22;38563;54.258;12.574;2023-07-31T08:42:43;18.40;99.90
13598;DHT22;38563;54.258;12.574;2023-07-31T08:45:13;18.20;99.90
13598;DHT22;38563;54.258;12.574;2023-07-31T08:47:42;18.10;99.90
13598;DHT22;38563;54.258;12.574;2023-07-31T08:50:09;18.00;99.90
13598;DHT22;38563;54.258;12.574;2023-07-31T08:52:38;17.90;99.90
13598;DHT22;38563;54.258;12.574;2023-07-31T08:55:06;17.80;99.90
13598;DHT22;38563;54.258;12.574;2023-07-31T08:57:35;17.70;99.90
13598;DHT22;38563;54.258;12.574;2023-07-31T09:00:03;17.60;99.90
13598;DHT22;38563;54.258;12.574;2023-07-31T09:02:35;17.60;99.90
13598;DHT22;38563;54.258;12.574;2023-07-31T09:05:05;17.60;99.90
13598;DHT22;38563;54.258;12.574;2023-07-31T09:07:33;17.50;99.90
13598;DHT22;38563;54.258;12.574;2023-07-31T09:10:01;17.60;99.90
13598;DHT22;38563;54.258;12.574;2023-07-31T09:12:28;17.60;99.90
13598;DHT22;38563;54.258;12.574;2023-07-31T09:14:56;17.70;99.90
13598;DHT22;38563;54.258;12.574;2023-07-31T09:17:29;18.00;99.90
13598;DHT22;38563;54.258;12.574;2023-07-31T09:19:56;18.40;99.90
13598;DHT22;38563;54.258;12.574;2023-07-31T09:22:31;19.30;99.90
13598;DHT22;38563;54.258;12.574;2023-07-31T09:25:14;19.90;99.90
13598;DHT22;38563;54.258;12.574;2023-07-31T09:27:53;19.90;99.90
13598;DHT22;38563;54.258;12.574;2023-07-31T09:30:20;19.90;99.90
13598;DHT22;38563;54.258;12.574;2023-07-31T09:32:48;20.10;99.90
13598;DHT22;38563;54.258;12.574;2023-07-31T09:35:20;20.30;99.90
13598;DHT22;38563;54.258;12.574;2023-07-31T09:37:51;20.40;99.90
13598;DHT22;38563;54.258;12.574;2023-07-31T09:40:32;20.20;99.90
13598;DHT22;38563;54.258;12.574;2023-07-31T09:43:00;20.00;99.90
13598;DHT22;38563;54.258;12.574;2023-07-31T09:45:28;20.00;99.90
13598;DHT22;38563;54.258;12.574;2023-07-31T09:47:55;19.80;99.90
13598;DHT22;38563;54.258;12.574;2023-07-31T09:50:24;19.70;99.90
13598;DHT22;38563;54.258;12.574;2023-07-31T09:52:51;19.80;99.90
13598;DHT22;38563;54.258;12.574;2023-07-31T09:55:19;19.70;99.90
13598;DHT22;38563;54.258;12.574;2023-07-31T09:57:48;19.60;99.90
13598;DHT22;38563;54.258;12.574;2023-07-31T10:00:17;19.50;99.90
13598;DHT22;38563;54.258;12.574;2023-07-31T10:02:46;19.60;99.90
13598;DHT22;38563;54.258;12.574;2023-07-31T10:05:14;19.60;99.90
13598;DHT22;38563;54.258;12.574;2023-07-31T10:07:43;19.70;99.90
13598;DHT22;38563;54.258;12.574;2023-07-31T10:10:10;19.90;99.90
13598;DHT22;38563;54.258;12.574;2023-07-31T10:12:38;20.10;99.90
13598;DHT22;38563;54.258;12.574;2023-07-31T10:15:08;20.00;99.90
13598;DHT22;38563;54.258;12.574;2023-07-31T10:17:36;20.00;99.90
13598;DHT22;38563;54.258;12.574;2023-07-31T10:20:03;20.10;99.90
13598;DHT22;38563;54.258;12.574;2023-07-31T10:22:31;20.10;99.90
13598;DHT22;38563;54.258;12.574;2023-07-31T10:24:59;20.10;99.90
13598;DHT22;38563;54.258;12.574;2023-07-31T10:27:26;19.80;99.90
13598;DHT22;38563;54.258;12.574;2023-07-31T10:29:56;19.60;99.90
13598;DHT22;38563;54.258;12.574;2023-07-31T10:32:25;19.60;99.90
13598;DHT22;38563;54.258;12.574;2023-07-31T10:34:53;19.40;99.90
13598;DHT22;38563;54.258;12.574;2023-07-31T10:37:22;19.40;99.90
13598;DHT22;38563;54.258;12.574;2023-07-31T10:40:00;19.60;99.90
13598;DHT22;38563;54.258;12.574;2023-07-31T10:42:31;19.90;99.90
13598;DHT22;38563;54.258;12.574;2023-07-31T10:45:00;20.20;99.90
13598;DHT22;38563;54.258;12.574;2023-07-31T10:47:29;20.40;99.90
13598;DHT22;38563;54.258;12.574;2023-07-31T10:50:12;20.20;99.90
13598;DHT22;38563;54.258;12.574;2023-07-31T10:52:39;20.00;99.90
13598;DHT22;38563;54.258;12.574;2023-07-31T10:55:14;20.00;99.90
13598;DHT22;38563;54.258;12.574;2023-07-31T10:57:44;19.90;99.90
13598;DHT22;38563;54.258;12.574;2023-07-31T11:00:22;19.80;99.90
13598;DHT22;38563;54.258;12.574;2023-07-31T11:03:14;19.70;99.90
13598;DHT22;38563;54.258;12.574;2023-07-31T11:05:51;19.80;99.90
13598;DHT22;38563;54.258;12.574;2023-07-31T11:08:21;19.80;99.90
13598;DHT22;38563;54.258;12.574;2023-07-31T11:10:50;19.90;99.90
13598;DHT22;38563;54.258;12.574;2023-07-31T11:13:17;19.70;99.90
13598;DHT22;38563;54.258;12.574;2023-07-31T11:15:43;19.60;99.90
13598;DHT22;38563;54.258;12.574;2023-07-31T11:18:10;19.70;99.90
13598;DHT22;38563;54.258;12.574;2023-07-31T11:20:38;19.60;99.90
13598;DHT22;38563;54.258;12.574;2023-07-31T11:23:08;19.50;99.90
13598;DHT22;38563;54.258;12.574;2023-07-31T11:25:36;19.50;99.90
13598;DHT22;38563;54.258;12.574;2023-07-31T11:28:05;19.50;99.90
13598;DHT22;38563;54.258;12.574;2023-07-31T11:30:32;19.40;99.90
13598;DHT22;38563;54.258;12.574;2023-07-31T11:33:02;19.50;99.90
13598;DHT22;38563;54.258;12.574;2023-07-31T11:35:31;19.60;99.90
13598;DHT22;38563;54.258;12.574;2023-07-31T11:38:00;19.70;99.90
13598;DHT22;38563;54.258;12.574;2023-07-31T11:40:27;19.60;99.90
13598;DHT22;38563;54.258;12.574;2023-07-31T11:42:56;19.50;99.90
13598;DHT22;38563;54.258;12.574;2023-07-31T11:45:25;19.40;99.90
13598;DHT22;38563;54.258;12.574;2023-07-31T11:47:52;19.50;99.90
13598;DHT22;38563;54.258;12.574;2023-07-31T11:50:20;19.60;99.90
13598;DHT22;38563;54.258;12.574;2023-07-31T11:52:48;19.40;99.90
13598;DHT22;38563;54.258;12.574;2023-07-31T11:55:18;19.30;99.90
13598;DHT22;38563;54.258;12.574;2023-07-31T11:57:45;19.10;99.90
13598;DHT22;38563;54.258;12.574;2023-07-31T12:00:14;18.90;99.90
13598;DHT22;38563;54.258;12.574;2023-07-31T12:02:41;18.80;99.90
13598;DHT22;38563;54.258;12.574;2023-07-31T12:05:11;18.70;99.90
13598;DHT22;38563;54.258;12.574;2023-07-31T12:07:49;18.70;99.90
13598;DHT22;38563;54.258;12.574;2023-07-31T12:10:28;18.60;99.90
13598;DHT22;38563;54.258;12.574;2023-07-31T12:13:03;18.60;99.90
13598;DHT22;38563;54.258;12.574;2023-07-31T12:15:34;18.40;99.90
13598;DHT22;38563;54.258;12.574;2023-07-31T12:39:25;17.10;99.90
13598;DHT22;38563;54.258;12.574;2023-07-31T12:41:52;17.10;99.90
13598;DHT22;38563;54.258;12.574;2023-07-31T12:44:19;17.10;99.90
13598;DHT22;38563;54.258;12.574;2023-07-31T12:46:46;17.20;99.90
13598;DHT22;38563;54.258;12.574;2023-07-31T12:49:13;17.20;99.90
13598;DHT22;38563;54.258;12.574;2023-07-31T12:51:39;17.20;99.90
13598;DHT22;38563;54.258;12.574;2023-07-31T12:54:06;17.30;99.90
13598;DHT22;38563;54.258;12.574;2023-07-31T12:56:35;17.40;99.90
13598;DHT22;38563;54.258;12.574;2023-07-31T12:59:02;17.30;99.90
13598;DHT22;38563;54.258;12.574;2023-07-31T13:01:28;17.20;99.90
13598;DHT22;38563;54.258;12.574;2023-07-31T13:03:55;17.20;99.90
13598;DHT22;38563;54.258;12.574;2023-07-31T13:06:22;17.20;99.90
13598;DHT22;38563;54.258;12.574;2023-07-31T13:08:49;17.30;99.90
13598;DHT22;38563;54.258;12.574;2023-07-31T13:11:16;17.30;99.90
13598;DHT22;38563;54.258;12.574;2023-07-31T13:13:44;17.40;99.90
13598;DHT22;38563;54.258;12.574;2023-07-31T13:16:11;17.40;99.90
13598;DHT22;38563;54.258;12.574;2023-07-31T13:18:37;17.50;99.90
13598;DHT22;38563;54.258;12.574;2023-07-31T13:21:04;17.60;99.90
13598;DHT22;38563;54.258;12.574;2023-07-31T13:23:31;17.60;99.90
13598;DHT22;38563;54.258;12.574;2023-07-31T13:25:57;17.60;99.90
13598;DHT22;38563;54.258;12.574;2023-07-31T13:28:24;17.70;99.90
13598;DHT22;38563;54.258;12.574;2023-07-31T13:30:52;17.80;99.90
13598;DHT22;38563;54.258;12.574;2023-07-31T13:33:26;17.80;99.90
13598;DHT22;38563;54.258;12.574;2023-07-31T13:35:53;17.80;99.90
13598;DHT22;38563;54.258;12.574;2023-07-31T13:38:20;17.80;99.90
13598;DHT22;38563;54.258;12.574;2023-07-31T13:40:46;17.70;99.90
13598;DHT22;38563;54.258;12.574;2023-07-31T13:43:13;17.70;99.90
13598;DHT22;38563;54.258;12.574;2023-07-31T13:45:40;17.60;99.90
13598;DHT22;38563;54.258;12.574;2023-07-31T13:48:08;17.60;99.90
13598;DHT22;38563;54.258;12.574;2023-07-31T13:50:35;17.60;99.90
13598;DHT22;38563;54.258;12.574;2023-07-31T13:53:01;17.60;99.90
13598;DHT22;38563;54.258;12.574;2023-07-31T13:55:28;17.50;99.90
13598;DHT22;38563;54.258;12.574;2023-07-31T13:57:55;17.40;99.90
13598;DHT22;38563;54.258;12.574;2023-07-31T14:00:22;17.20;99.90
13598;DHT22;38563;54.258;12.574;2023-07-31T14:02:48;17.10;99.90
13598;DHT22;38563;54.258;12.574;2023-07-31T14:05:16;17.00;99.90
13598;DHT22;38563;54.258;12.574;2023-07-31T14:07:43;17.00;99.90
13598;DHT22;38563;54.258;12.574;2023-07-31T14:10:10;16.90;99.90
13598;DHT22;38563;54.258;12.574;2023-07-31T14:12:36;16.80;99.90
13598;DHT22;38563;54.258;12.574;2023-07-31T14:15:04;16.80;99.90
13598;DHT22;38563;54.258;12.574;2023-07-31T14:17:31;16.80;99.90
13598;DHT22;38563;54.258;12.574;2023-07-31T14:19:58;16.90;99.90
13598;DHT22;38563;54.258;12.574;2023-07-31T14:22:30;16.90;99.90
13598;DHT22;38563;54.258;12.574;2023-07-31T14:24:59;16.80;99.90
13598;DHT22;38563;54.258;12.574;2023-07-31T14:27:25;16.80;99.90
13598;DHT22;38563;54.258;12.574;2023-07-31T14:29:52;16.90;99.90
13598;DHT22;38563;54.258;12.574;2023-07-31T14:32:19;16.90;99.90
13598;DHT22;38563;54.258;12.574;2023-07-31T14:34:45;16.90;99.90
13598;DHT22;38563;54.258;12.574;2023-07-31T14:37:12;16.90;99.90
13598;DHT22;38563;54.258;12.574;2023-07-31T14:39:40;16.80;99.90
13598;DHT22;38563;54.258;12.574;2023-07-31T14:42:07;16.80;99.90
13598;DHT22;38563;54.258;12.574;2023-07-31T14:44:33;16.80;99.90
13598;DHT22;38563;54.258;12.574;2023-07-31T14:47:00;16.90;99.90
13598;DHT22;38563;54.258;12.574;2023-07-31T14:49:27;16.90;99.90
13598;DHT22;38563;54.258;12.574;2023-07-31T14:51:54;16.90;99.90
13598;DHT22;38563;54.258;12.574;2023-07-31T14:54:20;17.00;99.90
13598;DHT22;38563;54.258;12.574;2023-07-31T14:56:48;17.00;99.90
13598;DHT22;38563;54.258;12.574;2023-07-31T14:59:17;17.10;99.90
13598;DHT22;38563;54.258;12.574;2023-07-31T15:01:46;17.10;99.90
13598;DHT22;38563;54.258;12.574;2023-07-31T15:04:13;17.10;99.90
13598;DHT22;38563;54.258;12.574;2023-07-31T15:06:40;17.10;99.90
13598;DHT22;38563;54.258;12.574;2023-07-31T15:09:06;17.10;99.90
13598;DHT22;38563;54.258;12.574;2023-07-31T15:11:33;17.10;99.90
13598;DHT22;38563;54.258;12.574;2023-07-31T15:14:01;17.10;99.90
13598;DHT22;38563;54.258;12.574;2023-07-31T15:16:28;17.10;99.90
13598;DHT22;38563;54.258;12.574;2023-07-31T15:18:56;17.10;99.90
13598;DHT22;38563;54.258;12.574;2023-07-31T15:21:23;17.10;99.90
13598;DHT22;38563;54.258;12.574;2023-07-31T15:23:50;17.10;99.90
13598;DHT22;38563;54.258;12.574;2023-07-31T15:26:16;17.10;99.90
13598;DHT22;38563;54.258;12.574;2023-07-31T15:28:49;17.20;99.90
13598;DHT22;38563;54.258;12.574;2023-07-31T15:31:17;17.20;99.90
13598;DHT22;38563;54.258;12.574;2023-07-31T15:33:44;17.20;99.90
13598;DHT22;38563;54.258;12.574;2023-07-31T15:36:11;17.20;99.90
13598;DHT22;38563;54.258;12.574;2023-07-31T15:38:37;17.20;99.90
13598;DHT22;38563;54.258;12.574;2023-07-31T15:41:04;17.20;99.90